createdAt,value
2023-04-03T00:01:29.246Z,57.92
2023-04-03T00:03:57.093Z,57.24
2023-04-03T00:06:27.784Z,58.72
2023-04-03T00:08:55.571Z,58.50
2023-04-03T00:11:23.231Z,57.45
2023-04-03T00:13:51.377Z,57.43
2023-04-03T00:16:19.142Z,57.83
2023-04-03T00:18:46.661Z,57.76
2023-04-03T00:21:16.589Z,57.76
2023-04-03T00:23:44.465Z,57.53
2023-04-03T00:26:12.078Z,55.93
2023-04-03T00:28:41.192Z,56.46
2023-04-03T00:31:08.746Z,57.31
2023-04-03T00:33:36.504Z,57.73
2023-04-03T00:36:10.377Z,58.92
2023-04-03T00:38:38.462Z,58.52
2023-04-03T00:41:06.110Z,58.99
2023-04-03T00:43:33.868Z,58.88
2023-04-03T00:46:02.218Z,59.04
2023-04-03T00:48:44.204Z,60.54
2023-04-03T00:51:20.384Z,58.94
2023-04-03T00:53:56.659Z,60.15
2023-04-03T00:56:28.867Z,62.21
2023-04-03T00:59:10.883Z,63.21
2023-04-03T01:01:39.674Z,63.51
2023-04-03T01:04:26.056Z,65.07
2023-04-03T01:06:53.746Z,63.99
2023-04-03T01:09:21.673Z,64.02
2023-04-03T01:11:49.972Z,64.40
2023-04-03T01:14:17.972Z,64.14
2023-04-03T01:16:55.676Z,62.72
2023-04-03T01:19:25.200Z,62.15
2023-04-03T01:22:29.902Z,62.62
2023-04-03T01:24:57.441Z,62.35
2023-04-03T01:27:25.070Z,62.43
2023-04-03T01:29:52.585Z,62.11
2023-04-03T01:32:20.326Z,61.63
2023-04-03T01:34:47.824Z,61.12
2023-04-03T01:37:15.544Z,59.88
2023-04-03T01:39:42.994Z,60.70
2023-04-03T01:42:13.424Z,61.15
2023-04-03T01:44:44.228Z,62.00
2023-04-03T01:47:11.789Z,61.31
2023-04-03T01:49:41.188Z,61.20
2023-04-03T01:52:08.696Z,60.76
2023-04-03T01:54:36.259Z,61.60
2023-04-03T01:57:04.037Z,61.04
2023-04-03T01:59:32.002Z,60.13
2023-04-03T02:01:59.571Z,60.67
2023-04-03T02:04:27.169Z,60.92
2023-04-03T02:06:54.821Z,61.43
2023-04-03T02:09:22.372Z,61.59
2023-04-03T02:11:50.347Z,61.38
2023-04-03T02:14:17.909Z,60.76
2023-04-03T02:16:45.607Z,61.29
2023-04-03T02:19:13.081Z,61.94
2023-04-03T02:21:41.268Z,61.80
2023-04-03T02:24:09.510Z,62.13
2023-04-03T02:26:37.136Z,61.38
2023-04-03T02:29:06.027Z,61.22
2023-04-03T02:31:33.777Z,60.84
2023-04-03T02:34:03.067Z,61.93
2023-04-03T02:36:31.890Z,62.36
2023-04-03T02:39:03.607Z,62.46
2023-04-03T02:41:36.025Z,63.25
2023-04-03T02:44:08.192Z,63.21
2023-04-03T02:46:35.742Z,62.59
2023-04-03T02:49:04.862Z,62.76
2023-04-03T02:51:32.537Z,62.49
2023-04-03T02:54:00.279Z,63.19
2023-04-03T02:56:31.544Z,63.55
2023-04-03T02:58:59.130Z,64.02
2023-04-03T03:01:29.515Z,64.48
2023-04-03T03:03:57.109Z,63.99
2023-04-03T03:06:26.047Z,64.40
2023-04-03T03:08:54.286Z,64.46
2023-04-03T03:11:22.058Z,64.52
2023-04-03T03:13:50.504Z,64.73
2023-04-03T03:16:18.269Z,64.75
2023-04-03T03:18:45.759Z,65.36
2023-04-03T03:21:13.409Z,65.13
2023-04-03T03:23:41.645Z,64.67
2023-04-03T03:26:13.353Z,64.81
2023-04-03T03:28:41.942Z,65.28
2023-04-03T03:31:11.627Z,65.43
2023-04-03T03:33:40.813Z,66.46
2023-04-03T03:36:08.885Z,65.90
2023-04-03T03:38:37.681Z,67.11
2023-04-03T03:41:05.382Z,67.70
2023-04-03T03:43:34.745Z,68.27
2023-04-03T03:46:03.770Z,68.22
2023-04-03T03:48:31.424Z,67.95
2023-04-03T03:50:58.979Z,67.59
2023-04-03T03:53:30.872Z,67.54
2023-04-03T03:56:03.497Z,67.68
2023-04-03T03:58:32.381Z,68.21
2023-04-03T04:01:08.397Z,68.49
2023-04-03T04:03:41.883Z,68.53
2023-04-03T04:06:11.547Z,69.18
2023-04-03T04:08:39.038Z,69.21
2023-04-03T04:11:10.046Z,64.87
2023-04-03T04:13:38.423Z,67.47
2023-04-03T04:16:07.001Z,65.45
2023-04-03T04:18:34.840Z,66.59
2023-04-03T04:21:02.543Z,68.71
2023-04-03T04:23:30.526Z,69.80
2023-04-03T04:25:59.624Z,69.72
2023-04-03T04:28:29.073Z,72.16
2023-04-03T04:30:59.034Z,73.20
2023-04-03T04:33:28.191Z,74.47
2023-04-03T04:35:57.206Z,75.31
2023-04-03T04:38:24.775Z,75.72
2023-04-03T04:40:54.099Z,74.82
2023-04-03T04:43:22.347Z,75.24
2023-04-03T04:46:06.867Z,74.26
2023-04-03T04:48:39.122Z,75.68
2023-04-03T04:51:07.716Z,75.99
2023-04-03T04:53:37.601Z,74.98
2023-04-03T04:56:06.297Z,75.91
2023-04-03T04:58:35.735Z,75.56
2023-04-03T05:01:07.530Z,75.55
2023-04-03T05:03:38.647Z,75.62
2023-04-03T05:06:06.723Z,75.92
2023-04-03T05:08:35.664Z,75.31
2023-04-03T05:11:04.506Z,75.64
2023-04-03T05:13:32.905Z,75.90
2023-04-03T05:16:00.531Z,75.53
2023-04-03T05:18:28.718Z,75.96
2023-04-03T05:20:59.719Z,75.27
2023-04-03T05:23:27.788Z,75.24
2023-04-03T05:25:56.916Z,74.76
2023-04-03T05:28:25.437Z,74.31
2023-04-03T05:30:59.885Z,73.88
2023-04-03T05:33:33.673Z,73.50
2023-04-03T05:36:06.863Z,72.58
2023-04-03T05:38:38.615Z,72.89
2023-04-03T05:41:06.790Z,72.26
2023-04-03T05:43:35.678Z,71.33
2023-04-03T05:46:03.643Z,70.49
2023-04-03T05:48:31.476Z,69.20
2023-04-03T05:50:59.708Z,68.43
2023-04-03T05:53:32.723Z,67.78
2023-04-03T05:56:04.215Z,66.61
2023-04-03T05:58:35.784Z,65.95
2023-04-03T06:01:03.491Z,64.29
2023-04-03T06:03:31.632Z,63.33
2023-04-03T06:05:59.268Z,62.42
2023-04-03T06:08:26.872Z,60.25
2023-04-03T06:10:54.384Z,59.80
2023-04-03T06:13:21.873Z,58.30
2023-04-03T06:15:49.626Z,56.64
2023-04-03T06:18:17.683Z,57.29
2023-04-03T06:20:47.679Z,57.40
2023-04-03T06:23:15.155Z,55.80
2023-04-03T06:25:43.085Z,55.93
2023-04-03T06:28:11.260Z,56.00
2023-04-03T06:30:39.211Z,56.50
2023-04-03T06:33:07.825Z,55.71
2023-04-03T06:35:36.181Z,55.77
2023-04-03T06:38:08.820Z,57.18
2023-04-03T06:40:36.973Z,56.32
2023-04-03T06:43:04.702Z,57.04
2023-04-03T06:45:32.293Z,57.05
2023-04-03T06:47:59.837Z,57.00
2023-04-03T06:50:27.306Z,56.91
2023-04-03T06:52:54.732Z,56.96
2023-04-03T06:55:23.033Z,55.44
2023-04-03T06:57:50.646Z,54.72
2023-04-03T07:00:18.983Z,54.43
2023-04-03T07:02:46.733Z,53.98
2023-04-03T07:05:14.657Z,54.27
2023-04-03T07:07:42.244Z,54.50
2023-04-03T07:10:11.204Z,53.12
2023-04-03T07:12:39.158Z,54.26
2023-04-03T07:15:08.138Z,53.09
2023-04-03T07:17:36.901Z,53.15
2023-04-03T07:20:05.843Z,54.01
2023-04-03T07:22:33.907Z,52.34
2023-04-03T07:25:02.251Z,54.11
2023-04-03T07:27:29.760Z,52.36
2023-04-03T07:29:57.300Z,50.06
2023-04-03T07:32:24.914Z,49.88
2023-04-03T07:34:52.465Z,49.88
2023-04-03T07:37:20.170Z,51.03
2023-04-03T07:39:47.597Z,49.98
2023-04-03T07:42:15.889Z,50.70
2023-04-03T07:44:43.761Z,50.94
2023-04-03T07:47:11.288Z,51.12
2023-04-03T07:49:40.728Z,49.27
2023-04-03T07:52:10.157Z,50.03
2023-04-03T07:54:37.866Z,50.81
2023-04-03T07:57:06.398Z,49.87
2023-04-03T07:59:35.893Z,50.16
2023-04-03T08:02:06.297Z,48.40
2023-04-03T08:04:34.152Z,48.43
2023-04-03T08:07:01.739Z,50.83
2023-04-03T08:09:29.326Z,49.83
2023-04-03T08:11:56.766Z,50.46
2023-04-03T08:14:24.231Z,50.05
2023-04-03T08:16:52.371Z,50.06
2023-04-03T08:19:26.015Z,49.93
2023-04-03T08:21:56.245Z,50.42
2023-04-03T08:24:23.878Z,50.58
2023-04-03T08:26:52.084Z,48.33
2023-04-03T08:29:19.720Z,47.89
2023-04-03T08:31:47.323Z,48.18
2023-04-03T08:34:15.697Z,47.27
2023-04-03T08:36:43.654Z,49.63
2023-04-03T08:39:11.798Z,49.37
2023-04-03T08:41:40.767Z,49.83
2023-04-03T08:44:27.362Z,49.67
2023-04-03T08:47:27.798Z,48.71
2023-04-03T08:50:06.426Z,47.17
2023-04-03T08:52:50.843Z,47.06
2023-04-03T08:55:41.562Z,47.41
2023-04-03T08:58:25.049Z,48.47
2023-04-03T09:00:59.569Z,49.50
2023-04-03T09:03:29.775Z,50.26
2023-04-03T09:06:06.227Z,51.19
2023-04-03T09:08:49.757Z,49.88
2023-04-03T09:11:30.360Z,50.70
2023-04-03T09:14:04.434Z,48.12
2023-04-03T09:16:35.225Z,47.72
2023-04-03T09:19:32.565Z,48.79
2023-04-03T09:22:20.054Z,46.74
2023-04-03T09:25:02.627Z,48.95
2023-04-03T09:27:31.610Z,48.78
2023-04-03T09:29:59.845Z,48.34
2023-04-03T09:32:30.955Z,49.16
2023-04-03T09:35:18.979Z,46.68
2023-04-03T09:37:57.810Z,49.37
2023-04-03T09:40:29.687Z,47.88
2023-04-03T09:43:12.988Z,46.80
2023-04-03T09:45:40.824Z,47.99
2023-04-03T09:48:27.632Z,49.46
2023-04-03T09:51:02.665Z,49.40
2023-04-03T09:53:40.671Z,50.33
2023-04-03T09:56:23.292Z,51.01
2023-04-03T09:59:01.032Z,50.03
2023-04-03T10:01:32.322Z,50.70
2023-04-03T10:04:09.310Z,51.60
2023-04-03T10:06:51.050Z,51.67
2023-04-03T10:09:30.974Z,52.23
2023-04-03T10:12:13.534Z,52.95
2023-04-03T10:14:57.000Z,54.03
2023-04-03T10:17:58.692Z,53.80
2023-04-03T10:20:44.036Z,54.00
2023-04-03T10:23:21.486Z,51.03
2023-04-03T10:26:05.245Z,53.76
2023-04-03T10:28:56.240Z,52.05
2023-04-03T10:31:47.793Z,52.53
2023-04-03T10:34:34.928Z,56.48
2023-04-03T10:37:23.294Z,56.92
2023-04-03T10:40:37.140Z,60.31
2023-04-03T10:43:11.209Z,59.93
2023-04-03T10:45:50.206Z,60.03
2023-04-03T10:49:03.540Z,62.12
2023-04-03T10:51:44.002Z,63.41
2023-04-03T10:54:47.131Z,62.36
2023-04-03T10:57:14.751Z,62.46
2023-04-03T10:59:46.547Z,59.93
2023-04-03T11:02:32.532Z,58.08
2023-04-03T11:05:15.035Z,59.70
2023-04-03T11:07:49.267Z,58.16
2023-04-03T11:10:45.119Z,59.92
2023-04-03T11:13:45.285Z,61.85
2023-04-03T11:16:27.508Z,64.56
2023-04-03T11:19:25.556Z,64.97
2023-04-03T11:22:01.846Z,61.12
2023-04-03T11:24:33.570Z,62.03
2023-04-03T11:27:05.398Z,66.13
2023-04-03T11:29:43.310Z,65.49
2023-04-03T11:33:07.408Z,66.07
2023-04-03T11:35:37.102Z,63.94
2023-04-03T11:38:07.590Z,65.19
2023-04-03T11:40:39.463Z,66.73
2023-04-03T11:43:31.634Z,69.54
2023-04-03T11:46:07.425Z,71.57
2023-04-03T11:48:40.935Z,71.84
2023-04-03T11:51:22.655Z,72.60
2023-04-03T11:54:00.208Z,73.58
2023-04-03T11:56:33.750Z,73.39
2023-04-03T11:59:17.612Z,71.94
2023-04-03T12:01:53.732Z,73.49
2023-04-03T12:04:33.684Z,76.47
2023-04-03T12:07:25.619Z,78.89
2023-04-03T12:10:03.552Z,79.37
2023-04-03T12:13:04.190Z,81.56
2023-04-03T12:15:42.620Z,82.24
2023-04-03T12:18:46.024Z,81.63
2023-04-03T12:21:27.628Z,81.16
2023-04-03T12:24:08.235Z,82.01
2023-04-03T12:26:48.959Z,82.29
2023-04-03T12:29:39.642Z,82.31
2023-04-03T12:32:54.144Z,82.42
2023-04-03T12:35:48.842Z,82.73
2023-04-03T12:39:00.940Z,82.41
2023-04-03T12:42:11.699Z,82.71
2023-04-03T12:44:55.915Z,83.85
2023-04-03T12:47:41.801Z,86.18
2023-04-03T12:50:35.654Z,87.07
2023-04-03T12:53:36.984Z,88.59
2023-04-03T12:59:24.774Z,90.88
2023-04-03T13:04:57.202Z,91.74
2023-04-03T13:07:46.412Z,93.09
2023-04-03T13:10:24.116Z,93.94
2023-04-03T13:13:23.468Z,95.81
2023-04-03T13:15:58.644Z,96.03
2023-04-03T13:18:42.170Z,97.24
2023-04-03T13:21:24.994Z,96.27
2023-04-03T13:24:14.609Z,94.22
2023-04-03T13:26:44.535Z,94.55
2023-04-03T13:29:36.368Z,94.46
2023-04-03T13:32:06.611Z,95.30
2023-04-03T13:34:43.390Z,95.83
2023-04-03T13:37:34.567Z,97.21
2023-04-03T13:40:07.681Z,98.67
2023-04-03T13:42:41.634Z,98.50
2023-04-03T13:45:24.580Z,99.59
2023-04-03T13:48:20.099Z,100.00
2023-04-03T13:51:24.600Z,100.00
2023-04-03T13:53:58.939Z,100.00
2023-04-03T13:56:29.019Z,100.00
2023-04-03T13:59:35.554Z,100.00
2023-04-03T14:02:06.318Z,100.00
2023-04-03T14:04:38.498Z,100.00
2023-04-03T14:07:07.906Z,100.00
2023-04-03T14:09:35.966Z,100.00
2023-04-03T14:12:30.875Z,100.00
2023-04-03T14:15:04.330Z,100.00
2023-04-03T14:17:32.591Z,100.00
2023-04-03T14:20:01.998Z,100.00
2023-04-03T14:22:35.860Z,100.00
2023-04-03T14:25:06.357Z,100.00
2023-04-03T14:27:46.459Z,100.00
2023-04-03T14:30:21.187Z,100.00
2023-04-03T14:32:50.180Z,100.00
2023-04-03T14:35:19.978Z,100.00
2023-04-03T14:37:49.533Z,100.00
2023-04-03T14:40:24.237Z,100.00
2023-04-03T14:42:56.062Z,100.00
2023-04-03T14:45:24.805Z,100.00
2023-04-03T14:47:56.303Z,100.00
2023-04-03T14:50:27.948Z,100.00
2023-04-03T14:52:59.838Z,100.00
2023-04-03T14:55:29.298Z,100.00
2023-04-03T14:57:57.086Z,100.00
2023-04-03T15:00:24.929Z,100.00
2023-04-03T15:02:53.121Z,100.00
2023-04-03T15:05:20.940Z,100.00
2023-04-03T15:07:56.181Z,100.00
2023-04-03T15:10:30.886Z,100.00
2023-04-03T15:13:05.243Z,100.00
2023-04-03T15:15:41.701Z,100.00
2023-04-03T15:18:19.570Z,100.00
2023-04-03T15:20:48.772Z,100.00
2023-04-03T15:23:18.176Z,100.00
2023-04-03T15:25:48.621Z,100.00
2023-04-03T15:28:36.841Z,100.00
2023-04-03T15:31:06.253Z,100.00
2023-04-03T15:33:35.699Z,100.00
2023-04-03T15:36:07.731Z,100.00
2023-04-03T15:38:44.634Z,100.00
2023-04-03T15:41:12.178Z,100.00
2023-04-03T15:43:40.924Z,100.00
2023-04-03T15:46:09.162Z,100.00
2023-04-03T15:48:38.378Z,100.00
2023-04-03T15:51:07.973Z,100.00
2023-04-03T15:53:35.706Z,100.00
2023-04-03T15:56:03.282Z,100.00
2023-04-03T15:58:31.071Z,100.00
2023-04-03T16:00:59.559Z,100.00
2023-04-03T16:03:27.550Z,100.00
2023-04-03T16:05:55.534Z,100.00
2023-04-03T16:08:23.138Z,100.00
2023-04-03T16:10:54.789Z,100.00
2023-04-03T16:13:22.574Z,100.00
2023-04-03T16:15:50.592Z,100.00
2023-04-03T16:18:19.586Z,100.00
2023-04-03T16:20:47.182Z,100.00
2023-04-03T16:23:14.903Z,100.00
2023-04-03T16:25:47.522Z,100.00
2023-04-03T16:28:18.563Z,100.00
2023-04-03T16:30:48.361Z,100.00
2023-04-03T16:33:21.833Z,100.00
2023-04-03T16:35:54.026Z,100.00
2023-04-03T16:38:23.351Z,100.00
2023-04-03T16:40:51.653Z,100.00
2023-04-03T16:43:19.336Z,100.00
2023-04-03T16:45:47.479Z,100.00
2023-04-03T16:48:15.415Z,100.00
2023-04-03T16:50:43.404Z,100.00
2023-04-03T16:53:12.729Z,100.00
2023-04-03T16:55:41.488Z,100.00
2023-04-03T16:58:09.397Z,100.00
2023-04-03T17:00:57.472Z,100.00
2023-04-03T17:03:29.404Z,100.00
2023-04-03T17:05:58.642Z,99.90
2023-04-03T17:08:26.872Z,98.77
2023-04-03T17:10:56.833Z,98.61
2023-04-03T17:13:29.313Z,97.89
2023-04-03T17:15:57.652Z,97.61
2023-04-03T17:18:27.523Z,98.84
2023-04-03T17:20:59.295Z,97.90
2023-04-03T17:23:31.028Z,97.97
2023-04-03T17:26:03.004Z,97.96
2023-04-03T17:28:32.761Z,98.46
2023-04-03T17:31:03.811Z,98.60
2023-04-03T17:33:33.445Z,99.11
2023-04-03T17:36:05.962Z,100.00
2023-04-03T17:38:35.366Z,100.00
2023-04-03T17:41:11.229Z,100.00
2023-04-03T17:43:44.216Z,100.00
2023-04-03T17:46:13.302Z,100.00
2023-04-03T17:48:44.522Z,100.00
2023-04-03T17:51:16.772Z,100.00
2023-04-03T17:53:45.840Z,100.00
2023-04-03T17:56:19.348Z,100.00
2023-04-03T17:58:51.302Z,100.00
2023-04-03T18:01:23.237Z,99.29
2023-04-03T18:03:56.153Z,99.50
2023-04-03T18:06:31.873Z,100.00
2023-04-03T18:09:16.148Z,100.00
2023-04-03T18:11:47.255Z,100.00
2023-04-03T18:14:21.570Z,100.00
2023-04-03T18:16:50.822Z,100.00
2023-04-03T18:19:23.343Z,100.00
2023-04-03T18:22:04.023Z,100.00
2023-04-03T18:24:36.077Z,100.00
2023-04-03T18:27:14.392Z,100.00
2023-04-03T18:29:47.512Z,99.87
2023-04-03T18:32:21.800Z,100.00
2023-04-03T18:34:52.162Z,99.31
2023-04-03T18:37:23.645Z,97.27
2023-04-03T18:39:53.621Z,95.86
2023-04-03T18:42:26.193Z,93.94
2023-04-03T18:45:07.830Z,93.10
2023-04-03T18:47:37.822Z,92.74
2023-04-03T18:50:11.315Z,94.10
2023-04-03T18:52:42.849Z,93.50
2023-04-03T18:55:13.922Z,95.15
2023-04-03T18:57:44.379Z,95.34
2023-04-03T19:00:16.655Z,98.01
2023-04-03T19:02:48.236Z,97.45
2023-04-03T19:05:18.695Z,98.46
2023-04-03T19:07:47.927Z,100.00
2023-04-03T19:10:18.450Z,100.00
2023-04-03T19:12:51.347Z,100.00
2023-04-03T19:15:23.594Z,99.95
2023-04-03T19:17:57.733Z,100.00
2023-04-03T19:20:26.380Z,100.00
2023-04-03T19:22:59.609Z,100.00
2023-04-03T19:25:28.764Z,98.91
2023-04-03T19:27:58.428Z,100.00
2023-04-03T19:30:30.022Z,100.00
2023-04-03T19:33:04.274Z,100.00
2023-04-03T19:35:35.280Z,100.00
2023-04-03T19:38:04.662Z,100.00
2023-04-03T19:40:34.115Z,99.38
2023-04-03T19:43:02.218Z,100.00
2023-04-03T19:45:30.571Z,100.00
2023-04-03T19:48:01.574Z,100.00
2023-04-03T19:50:29.465Z,100.00
2023-04-03T19:52:58.291Z,100.00
2023-04-03T19:55:31.111Z,100.00
2023-04-03T19:58:02.605Z,100.00
2023-04-03T20:00:34.788Z,100.00
2023-04-03T20:03:04.561Z,100.00
2023-04-03T20:05:32.600Z,100.00
2023-04-03T20:08:00.529Z,100.00
2023-04-03T20:10:29.358Z,100.00
2023-04-03T20:12:57.319Z,100.00
2023-04-03T20:15:26.656Z,100.00
2023-04-03T20:17:54.748Z,100.00
2023-04-03T20:20:24.288Z,100.00
2023-04-03T20:22:53.941Z,100.00
2023-04-03T20:25:43.921Z,100.00
2023-04-03T20:28:13.636Z,100.00
2023-04-03T20:30:42.887Z,100.00
2023-04-03T20:33:10.611Z,100.00
2023-04-03T20:35:38.456Z,100.00
2023-04-03T20:38:07.439Z,100.00
2023-04-03T20:40:37.881Z,100.00
2023-04-03T20:43:10.560Z,100.00
2023-04-03T20:45:38.314Z,100.00
2023-04-03T20:48:06.279Z,100.00
2023-04-03T20:50:34.769Z,100.00
2023-04-03T20:53:03.384Z,100.00
2023-04-03T20:55:31.091Z,100.00
2023-04-03T20:58:01.449Z,100.00
2023-04-03T21:00:33.032Z,100.00
2023-04-03T21:03:02.009Z,100.00
2023-04-03T21:05:30.524Z,100.00
2023-04-03T21:08:53.929Z,100.00
2023-04-03T21:12:17.124Z,100.00
2023-04-03T21:15:41.303Z,100.00
2023-04-03T21:18:11.281Z,100.00
2023-04-03T21:20:40.314Z,100.00
2023-04-03T21:23:08.026Z,100.00
2023-04-03T21:25:36.161Z,100.00
2023-04-03T21:28:07.045Z,100.00
2023-04-03T21:30:36.207Z,100.00
2023-04-03T21:33:05.007Z,100.00
2023-04-03T21:35:33.630Z,100.00
2023-04-03T21:38:01.214Z,100.00
2023-04-03T21:40:28.669Z,100.00
2023-04-03T21:42:56.723Z,100.00
2023-04-03T21:45:25.526Z,100.00
2023-04-03T21:47:53.882Z,100.00
2023-04-03T21:50:21.440Z,100.00
2023-04-03T21:52:54.606Z,100.00
2023-04-03T21:55:22.808Z,100.00
2023-04-03T21:57:55.922Z,100.00
2023-04-03T22:00:25.239Z,100.00
2023-04-03T22:02:57.804Z,100.00
2023-04-03T22:05:36.443Z,100.00
2023-04-03T22:08:04.264Z,100.00
2023-04-03T22:10:32.336Z,100.00
2023-04-03T22:13:02.400Z,100.00
2023-04-03T22:15:30.225Z,100.00
2023-04-03T22:17:57.800Z,100.00
2023-04-03T22:20:25.530Z,100.00
2023-04-03T22:22:52.953Z,100.00
2023-04-03T22:25:20.524Z,100.00
2023-04-03T22:27:47.962Z,100.00
2023-04-03T22:30:15.635Z,100.00
2023-04-03T22:32:43.262Z,100.00
2023-04-03T22:35:12.018Z,100.00
2023-04-03T22:37:39.564Z,100.00
2023-04-03T22:40:08.273Z,100.00
2023-04-03T22:42:35.762Z,100.00
2023-04-03T22:45:03.736Z,100.00
2023-04-03T22:47:31.972Z,100.00
2023-04-03T22:49:59.432Z,100.00
2023-04-03T22:52:26.972Z,100.00
2023-04-03T22:54:54.447Z,100.00
2023-04-03T22:57:21.976Z,100.00
2023-04-03T22:59:49.709Z,100.00
2023-04-03T23:02:17.207Z,100.00
2023-04-03T23:04:44.776Z,100.00
2023-04-03T23:07:12.300Z,100.00
2023-04-03T23:09:39.783Z,100.00
2023-04-03T23:12:09.852Z,100.00
2023-04-03T23:14:37.412Z,100.00
2023-04-03T23:17:06.065Z,100.00
2023-04-03T23:19:35.167Z,100.00
2023-04-03T23:22:02.715Z,100.00
2023-04-03T23:24:30.253Z,100.00
2023-04-03T23:26:57.723Z,100.00
2023-04-03T23:29:25.185Z,100.00
2023-04-03T23:31:52.854Z,100.00
2023-04-03T23:34:20.426Z,100.00
2023-04-03T23:36:48.236Z,100.00
2023-04-03T23:39:19.818Z,100.00
2023-04-03T23:41:48.139Z,100.00
2023-04-03T23:44:17.037Z,100.00
2023-04-03T23:46:44.648Z,100.00
2023-04-03T23:49:14.602Z,100.00
2023-04-03T23:51:42.118Z,100.00
2023-04-03T23:54:09.558Z,100.00
2023-04-03T23:56:37.021Z,100.00
2023-04-03T23:59:04.759Z,100.00
